sensor_id;sensor_type;location;lat;lon;timestamp;pressure;altitude;pressure_sealevel;temperature;humidity
49178;BME280;35016;55.674;37.468;2022-10-22T00:00:07;99461.81;;;6.11;74.10
49178;BME280;35016;55.674;37.468;2022-10-22T00:02:53;99480.41;;;6.13;73.80
49178;BME280;35016;55.674;37.468;2022-10-22T00:05:40;99467.78;;;6.13;73.97
49178;BME280;35016;55.674;37.468;2022-10-22T00:08:26;99459.56;;;6.08;74.21
49178;BME280;35016;55.674;37.468;2022-10-22T00:11:14;99471.16;;;6.09;73.65
49178;BME280;35016;55.674;37.468;2022-10-22T00:14:00;99456.66;;;6.10;73.98
49178;BME280;35016;55.674;37.468;2022-10-22T00:16:45;99454.38;;;6.07;74.20
49178;BME280;35016;55.674;37.468;2022-10-22T00:19:37;99457.47;;;6.10;73.98
49178;BME280;35016;55.674;37.468;2022-10-22T00:22:22;99456.06;;;6.08;73.68
49178;BME280;35016;55.674;37.468;2022-10-22T00:25:08;99456.25;;;6.06;74.05
49178;BME280;35016;55.674;37.468;2022-10-22T00:27:54;99435.53;;;5.95;74.08
49178;BME280;35016;55.674;37.468;2022-10-22T00:30:40;99431.91;;;5.89;74.21
49178;BME280;35016;55.674;37.468;2022-10-22T00:33:26;99457.78;;;6.02;73.97
49178;BME280;35016;55.674;37.468;2022-10-22T00:36:13;99439.75;;;6.03;74.20
49178;BME280;35016;55.674;37.468;2022-10-22T00:39:02;99427.69;;;5.94;74.16
49178;BME280;35016;55.674;37.468;2022-10-22T00:41:51;99434.50;;;5.96;74.16
49178;BME280;35016;55.674;37.468;2022-10-22T00:47:54;99436.75;;;6.11;74.06
49178;BME280;35016;55.674;37.468;2022-10-22T00:50:54;99441.31;;;6.10;74.23
49178;BME280;35016;55.674;37.468;2022-10-22T00:53:47;99440.56;;;6.03;74.11
49178;BME280;35016;55.674;37.468;2022-10-22T00:56:34;99442.09;;;5.99;74.11
49178;BME280;35016;55.674;37.468;2022-10-22T00:59:19;99435.31;;;5.97;73.98
49178;BME280;35016;55.674;37.468;2022-10-22T01:02:05;99433.09;;;5.94;74.32
49178;BME280;35016;55.674;37.468;2022-10-22T01:04:51;99430.97;;;5.96;73.90
49178;BME280;35016;55.674;37.468;2022-10-22T01:07:48;99430.63;;;5.92;74.10
49178;BME280;35016;55.674;37.468;2022-10-22T01:16:40;99435.19;;;5.92;74.08
49178;BME280;35016;55.674;37.468;2022-10-22T01:22:39;99438.22;;;5.95;73.99
49178;BME280;35016;55.674;37.468;2022-10-22T01:25:34;99453.31;;;5.96;74.26
49178;BME280;35016;55.674;37.468;2022-10-22T01:31:45;99438.09;;;5.90;74.07
49178;BME280;35016;55.674;37.468;2022-10-22T01:34:33;99447.44;;;5.87;74.45
49178;BME280;35016;55.674;37.468;2022-10-22T01:37:21;99442.88;;;5.88;74.54
49178;BME280;35016;55.674;37.468;2022-10-22T01:40:09;99452.38;;;5.90;74.07
49178;BME280;35016;55.674;37.468;2022-10-22T01:42:59;99454.03;;;5.92;74.45
49178;BME280;35016;55.674;37.468;2022-10-22T01:45:47;99448.75;;;5.97;74.69
49178;BME280;35016;55.674;37.468;2022-10-22T01:48:50;99467.13;;;6.00;74.46
49178;BME280;35016;55.674;37.468;2022-10-22T01:54:50;99450.41;;;5.98;74.05
49178;BME280;35016;55.674;37.468;2022-10-22T01:57:52;99457.19;;;6.00;74.52
49178;BME280;35016;55.674;37.468;2022-10-22T02:00:46;99448.19;;;5.95;74.51
49178;BME280;35016;55.674;37.468;2022-10-22T02:06:58;99470.41;;;6.02;74.16
49178;BME280;35016;55.674;37.468;2022-10-22T02:09:45;99453.09;;;5.98;74.19
49178;BME280;35016;55.674;37.468;2022-10-22T02:12:33;99451.69;;;5.95;73.97
49178;BME280;35016;55.674;37.468;2022-10-22T02:15:42;99468.53;;;6.02;74.34
49178;BME280;35016;55.674;37.468;2022-10-22T02:18:31;99473.22;;;6.07;74.34
49178;BME280;35016;55.674;37.468;2022-10-22T02:21:18;99451.47;;;5.97;74.26
49178;BME280;35016;55.674;37.468;2022-10-22T02:24:04;99459.53;;;5.97;73.79
49178;BME280;35016;55.674;37.468;2022-10-22T02:30:24;99454.03;;;5.92;74.21
49178;BME280;35016;55.674;37.468;2022-10-22T02:33:27;99479.41;;;5.96;74.63
49178;BME280;35016;55.674;37.468;2022-10-22T02:36:15;99466.91;;;6.01;74.20
49178;BME280;35016;55.674;37.468;2022-10-22T02:39:02;99460.34;;;5.97;73.85
49178;BME280;35016;55.674;37.468;2022-10-22T02:41:47;99452.50;;;5.96;74.54
49178;BME280;35016;55.674;37.468;2022-10-22T02:44:33;99467.97;;;6.00;74.07
49178;BME280;35016;55.674;37.468;2022-10-22T02:47:18;99473.34;;;6.00;74.03
49178;BME280;35016;55.674;37.468;2022-10-22T02:50:04;99449.31;;;5.87;74.50
49178;BME280;35016;55.674;37.468;2022-10-22T02:52:50;99475.31;;;5.93;74.11
49178;BME280;35016;55.674;37.468;2022-10-22T02:55:36;99460.59;;;5.96;73.84
49178;BME280;35016;55.674;37.468;2022-10-22T02:58:21;99465.28;;;6.00;74.07
49178;BME280;35016;55.674;37.468;2022-10-22T03:01:06;99471.56;;;5.94;73.97
49178;BME280;35016;55.674;37.468;2022-10-22T03:03:52;99466.31;;;5.99;74.43
49178;BME280;35016;55.674;37.468;2022-10-22T03:06:40;99462.81;;;5.99;73.70
49178;BME280;35016;55.674;37.468;2022-10-22T03:09:27;99472.75;;;5.98;73.99
49178;BME280;35016;55.674;37.468;2022-10-22T03:12:12;99462.22;;;5.97;73.90
49178;BME280;35016;55.674;37.468;2022-10-22T03:14:58;99462.22;;;5.97;73.86
49178;BME280;35016;55.674;37.468;2022-10-22T03:17:43;99469.84;;;6.00;74.08
49178;BME280;35016;55.674;37.468;2022-10-22T03:20:28;99477.31;;;5.98;74.00
49178;BME280;35016;55.674;37.468;2022-10-22T03:23:17;99470.06;;;5.98;73.93
49178;BME280;35016;55.674;37.468;2022-10-22T03:26:04;99472.97;;;5.97;73.90
49178;BME280;35016;55.674;37.468;2022-10-22T03:28:50;99460.22;;;5.92;73.94
49178;BME280;35016;55.674;37.468;2022-10-22T03:31:35;99472.53;;;6.00;74.21
49178;BME280;35016;55.674;37.468;2022-10-22T03:34:21;99462.69;;;5.94;74.29
49178;BME280;35016;55.674;37.468;2022-10-22T03:37:07;99473.91;;;5.90;74.35
49178;BME280;35016;55.674;37.468;2022-10-22T03:39:54;99469.13;;;5.93;74.39
49178;BME280;35016;55.674;37.468;2022-10-22T03:42:40;99479.41;;;5.96;73.84
49178;BME280;35016;55.674;37.468;2022-10-22T03:45:26;99451.34;;;5.92;74.63
49178;BME280;35016;55.674;37.468;2022-10-22T03:48:12;99473.34;;;6.00;74.24
49178;BME280;35016;55.674;37.468;2022-10-22T03:50:58;99466.91;;;6.01;74.17
49178;BME280;35016;55.674;37.468;2022-10-22T03:53:44;99472.28;;;6.01;74.36
49178;BME280;35016;55.674;37.468;2022-10-22T03:56:29;99473.09;;;6.02;74.08
49178;BME280;35016;55.674;37.468;2022-10-22T03:59:15;99473.56;;;5.99;74.36
49178;BME280;35016;55.674;37.468;2022-10-22T04:02:00;99478.50;;;6.02;74.57
49178;BME280;35016;55.674;37.468;2022-10-22T04:04:45;99465.03;;;6.02;73.93
49178;BME280;35016;55.674;37.468;2022-10-22T04:07:31;99460.81;;;5.94;73.79
49178;BME280;35016;55.674;37.468;2022-10-22T04:10:17;99469.84;;;6.00;74.02
49178;BME280;35016;55.674;37.468;2022-10-22T04:13:02;99469.59;;;6.01;74.06
49178;BME280;35016;55.674;37.468;2022-10-22T04:15:48;99475.09;;;6.06;74.07
49178;BME280;35016;55.674;37.468;2022-10-22T04:18:34;99473.84;;;6.09;74.53
49178;BME280;35016;55.674;37.468;2022-10-22T04:21:19;99475.72;;;6.08;74.28
49178;BME280;35016;55.674;37.468;2022-10-22T04:24:09;99470.94;;;6.10;74.29
49178;BME280;35016;55.674;37.468;2022-10-22T04:26:55;99464.97;;;6.08;74.01
49178;BME280;35016;55.674;37.468;2022-10-22T04:29:40;99469.06;;;6.11;74.31
49178;BME280;35016;55.674;37.468;2022-10-22T04:32:28;99473.47;;;6.05;73.98
49178;BME280;35016;55.674;37.468;2022-10-22T04:35:14;99477.81;;;6.06;73.91
49178;BME280;35016;55.674;37.468;2022-10-22T04:37:59;99460.13;;;5.99;74.09
49178;BME280;35016;55.674;37.468;2022-10-22T04:40:44;99482.75;;;6.09;74.05
49178;BME280;35016;55.674;37.468;2022-10-22T04:43:30;99479.25;;;6.09;74.25
49178;BME280;35016;55.674;37.468;2022-10-22T04:46:17;99479.38;;;6.14;74.08
49178;BME280;35016;55.674;37.468;2022-10-22T04:49:03;99480.06;;;6.09;74.18
49178;BME280;35016;55.674;37.468;2022-10-22T04:51:49;99469.41;;;6.14;74.54
49178;BME280;35016;55.674;37.468;2022-10-22T04:54:34;99483.34;;;6.23;74.50
49178;BME280;35016;55.674;37.468;2022-10-22T04:57:22;99487.56;;;6.19;73.97
49178;BME280;35016;55.674;37.468;2022-10-22T05:00:09;99480.53;;;6.18;74.44
49178;BME280;35016;55.674;37.468;2022-10-22T05:02:54;99477.16;;;6.22;74.65
49178;BME280;35016;55.674;37.468;2022-10-22T05:05:41;99481.84;;;6.27;74.03
49178;BME280;35016;55.674;37.468;2022-10-22T05:08:26;99487.56;;;6.31;74.55
49178;BME280;35016;55.674;37.468;2022-10-22T05:11:14;99485.34;;;6.28;74.54
49178;BME280;35016;55.674;37.468;2022-10-22T05:14:02;99484.06;;;6.30;74.18
49178;BME280;35016;55.674;37.468;2022-10-22T05:16:47;99481.94;;;6.32;74.13
49178;BME280;35016;55.674;37.468;2022-10-22T05:19:33;99483.00;;;6.31;74.31
49178;BME280;35016;55.674;37.468;2022-10-22T05:22:21;99484.56;;;6.39;74.35
49178;BME280;35016;55.674;37.468;2022-10-22T05:25:07;99498.47;;;6.36;73.98
49178;BME280;35016;55.674;37.468;2022-10-22T05:27:52;99489.25;;;6.43;74.45
49178;BME280;35016;55.674;37.468;2022-10-22T05:30:39;99498.97;;;6.44;74.51
49178;BME280;35016;55.674;37.468;2022-10-22T05:33:25;99507.75;;;6.51;73.90
49178;BME280;35016;55.674;37.468;2022-10-22T05:36:17;99511.84;;;6.54;74.19
49178;BME280;35016;55.674;37.468;2022-10-22T05:39:04;99509.75;;;6.56;74.20
49178;BME280;35016;55.674;37.468;2022-10-22T05:41:55;99500.59;;;6.45;73.97
49178;BME280;35016;55.674;37.468;2022-10-22T05:44:40;99508.34;;;6.53;74.08
49178;BME280;35016;55.674;37.468;2022-10-22T05:47:29;99508.44;;;6.59;73.98
49178;BME280;35016;55.674;37.468;2022-10-22T05:50:14;99517.94;;;6.61;73.75
49178;BME280;35016;55.674;37.468;2022-10-22T05:53:00;99511.06;;;6.65;73.88
49178;BME280;35016;55.674;37.468;2022-10-22T05:55:59;99512.81;;;6.71;73.99
49178;BME280;35016;55.674;37.468;2022-10-22T05:58:45;99512.09;;;6.76;73.52
49178;BME280;35016;55.674;37.468;2022-10-22T06:01:39;99503.09;;;6.70;73.76
49178;BME280;35016;55.674;37.468;2022-10-22T06:04:29;99520.75;;;6.90;73.64
49178;BME280;35016;55.674;37.468;2022-10-22T06:07:15;99519.84;;;6.96;73.61
49178;BME280;35016;55.674;37.468;2022-10-22T06:10:01;99529.91;;;7.00;73.38
49178;BME280;35016;55.674;37.468;2022-10-22T06:12:47;99510.81;;;7.02;73.21
49178;BME280;35016;55.674;37.468;2022-10-22T06:15:33;99519.81;;;7.07;73.23
49178;BME280;35016;55.674;37.468;2022-10-22T06:18:19;99515.03;;;7.09;73.48
49178;BME280;35016;55.674;37.468;2022-10-22T06:21:10;99520.06;;;7.06;73.16
49178;BME280;35016;55.674;37.468;2022-10-22T06:23:59;99502.84;;;7.07;73.25
49178;BME280;35016;55.674;37.468;2022-10-22T06:26:48;99515.00;;;7.21;72.83
49178;BME280;35016;55.674;37.468;2022-10-22T06:29:34;99517.00;;;7.26;73.04
49178;BME280;35016;55.674;37.468;2022-10-22T06:32:20;99516.28;;;7.30;72.40
49178;BME280;35016;55.674;37.468;2022-10-22T06:35:06;99522.47;;;7.42;72.41
49178;BME280;35016;55.674;37.468;2022-10-22T06:37:51;99526.66;;;7.50;72.15
49178;BME280;35016;55.674;37.468;2022-10-22T06:40:37;99519.38;;;7.51;72.14
49178;BME280;35016;55.674;37.468;2022-10-22T06:43:22;99503.56;;;7.54;71.92
49178;BME280;35016;55.674;37.468;2022-10-22T06:46:08;99514.47;;;7.47;72.04
49178;BME280;35016;55.674;37.468;2022-10-22T06:49:06;99516.19;;;7.65;72.05
49178;BME280;35016;55.674;37.468;2022-10-22T06:51:54;99513.69;;;7.75;71.40
49178;BME280;35016;55.674;37.468;2022-10-22T06:54:40;99542.19;;;7.83;71.46
49178;BME280;35016;55.674;37.468;2022-10-22T06:57:25;99531.72;;;7.87;71.35
49178;BME280;35016;55.674;37.468;2022-10-22T07:00:13;99543.44;;;7.92;71.51
49178;BME280;35016;55.674;37.468;2022-10-22T07:03:03;99544.03;;;7.94;71.45
49178;BME280;35016;55.674;37.468;2022-10-22T07:05:49;99528.06;;;7.93;71.06
49178;BME280;35016;55.674;37.468;2022-10-22T07:08:37;99533.47;;;7.93;70.79
49178;BME280;35016;55.674;37.468;2022-10-22T07:11:26;99511.78;;;7.76;70.67
49178;BME280;35016;55.674;37.468;2022-10-22T07:14:13;99536.88;;;7.88;71.17
49178;BME280;35016;55.674;37.468;2022-10-22T07:17:00;99537.03;;;7.82;70.96
49178;BME280;35016;55.674;37.468;2022-10-22T07:19:45;99548.78;;;7.75;70.79
49178;BME280;35016;55.674;37.468;2022-10-22T07:22:32;99567.91;;;7.74;70.75
49178;BME280;35016;55.674;37.468;2022-10-22T07:25:21;99537.88;;;7.70;71.00
49178;BME280;35016;55.674;37.468;2022-10-22T07:28:08;99537.53;;;7.67;71.30
49178;BME280;35016;55.674;37.468;2022-10-22T07:30:56;99554.28;;;7.81;70.68
49178;BME280;35016;55.674;37.468;2022-10-22T07:33:44;99537.72;;;7.77;71.18
49178;BME280;35016;55.674;37.468;2022-10-22T07:36:30;99538.78;;;7.88;71.16
49178;BME280;35016;55.674;37.468;2022-10-22T07:39:16;99528.53;;;7.90;70.49
49178;BME280;35016;55.674;37.468;2022-10-22T07:42:02;99537.56;;;7.95;70.37
49178;BME280;35016;55.674;37.468;2022-10-22T07:44:48;99537.31;;;7.97;70.87
49178;BME280;35016;55.674;37.468;2022-10-22T07:47:33;99542.72;;;7.97;70.34
49178;BME280;35016;55.674;37.468;2022-10-22T07:50:19;99552.22;;;7.99;70.49
49178;BME280;35016;55.674;37.468;2022-10-22T07:53:05;99538.47;;;8.01;70.32
49178;BME280;35016;55.674;37.468;2022-10-22T07:55:51;99541.75;;;8.03;69.91
49178;BME280;35016;55.674;37.468;2022-10-22T07:58:37;99541.75;;;8.03;69.83
49178;BME280;35016;55.674;37.468;2022-10-22T08:01:22;99550.31;;;8.12;69.76
49178;BME280;35016;55.674;37.468;2022-10-22T08:04:08;99544.75;;;8.18;69.58
49178;BME280;35016;55.674;37.468;2022-10-22T08:06:56;99539.59;;;8.17;69.72
49178;BME280;35016;55.674;37.468;2022-10-22T08:09:41;99528.69;;;8.28;69.48
49178;BME280;35016;55.674;37.468;2022-10-22T08:12:48;99534.91;;;8.29;68.90
49178;BME280;35016;55.674;37.468;2022-10-22T08:15:48;99534.91;;;8.29;69.18
49178;BME280;35016;55.674;37.468;2022-10-22T08:18:37;99546.22;;;8.26;68.89
49178;BME280;35016;55.674;37.468;2022-10-22T08:21:23;99544.00;;;8.23;69.09
49178;BME280;35016;55.674;37.468;2022-10-22T08:24:08;99547.44;;;8.18;69.36
49178;BME280;35016;55.674;37.468;2022-10-22T08:26:54;99542.84;;;8.19;69.52
49178;BME280;35016;55.674;37.468;2022-10-22T08:29:40;99545.56;;;8.19;68.97
49178;BME280;35016;55.674;37.468;2022-10-22T08:32:25;99545.16;;;8.27;69.01
49178;BME280;35016;55.674;37.468;2022-10-22T08:35:10;99544.34;;;8.26;68.77
49178;BME280;35016;55.674;37.468;2022-10-22T08:37:57;99537.88;;;8.27;68.56
49178;BME280;35016;55.674;37.468;2022-10-22T08:40:47;99557.59;;;8.28;68.64
49178;BME280;35016;55.674;37.468;2022-10-22T08:43:40;99547.78;;;8.22;68.80
49178;BME280;35016;55.674;37.468;2022-10-22T08:49:39;99545.31;;;8.20;68.83
49178;BME280;35016;55.674;37.468;2022-10-22T08:52:27;99552.94;;;8.23;68.76
49178;BME280;35016;55.674;37.468;2022-10-22T08:55:14;99550.72;;;8.20;68.46
49178;BME280;35016;55.674;37.468;2022-10-22T09:01:18;99542.72;;;7.97;67.92
49178;BME280;35016;55.674;37.468;2022-10-22T09:04:38;99545.22;;;7.87;68.34
49178;BME280;35016;55.674;37.468;2022-10-22T09:07:28;99549.72;;;7.81;68.69
49178;BME280;35016;55.674;37.468;2022-10-22T09:10:16;99541.16;;;7.72;68.80
49178;BME280;35016;55.674;37.468;2022-10-22T09:13:01;99549.09;;;7.79;68.89
49178;BME280;35016;55.674;37.468;2022-10-22T09:15:56;99546.41;;;7.79;68.91
49178;BME280;35016;55.674;37.468;2022-10-22T09:28:08;99533.47;;;7.93;68.82
49178;BME280;35016;55.674;37.468;2022-10-22T09:30:54;99522.00;;;7.86;68.77
49178;BME280;35016;55.674;37.468;2022-10-22T09:33:42;99526.91;;;7.89;68.60
49178;BME280;35016;55.674;37.468;2022-10-22T09:36:29;99522.31;;;7.89;68.70
49178;BME280;35016;55.674;37.468;2022-10-22T09:39:31;99537.66;;;8.00;68.51
49178;BME280;35016;55.674;37.468;2022-10-22T09:42:18;99521.94;;;7.97;68.16
49178;BME280;35016;55.674;37.468;2022-10-22T09:45:05;99544.31;;;8.10;68.52
49178;BME280;35016;55.674;37.468;2022-10-22T09:48:08;99546.63;;;8.18;67.84
49178;BME280;35016;55.674;37.468;2022-10-22T09:51:04;99545.41;;;8.25;67.79
49178;BME280;35016;55.674;37.468;2022-10-22T09:53:58;99555.72;;;8.28;67.68
49178;BME280;35016;55.674;37.468;2022-10-22T09:59:47;99540.06;;;8.42;67.83
49178;BME280;35016;55.674;37.468;2022-10-22T10:02:34;99522.91;;;8.36;67.77
49178;BME280;35016;55.674;37.468;2022-10-22T10:05:51;99533.34;;;8.45;67.01
49178;BME280;35016;55.674;37.468;2022-10-22T10:08:37;99529.00;;;8.44;67.52
49178;BME280;35016;55.674;37.468;2022-10-22T10:11:30;99540.06;;;8.42;67.67
49178;BME280;35016;55.674;37.468;2022-10-22T10:14:24;99515.50;;;8.44;67.47
49178;BME280;35016;55.674;37.468;2022-10-22T10:17:30;99525.56;;;8.48;66.86
49178;BME280;35016;55.674;37.468;2022-10-22T10:20:43;99502.81;;;8.44;66.86
49178;BME280;35016;55.674;37.468;2022-10-22T10:23:40;99514.19;;;8.46;67.53
49178;BME280;35016;55.674;37.468;2022-10-22T10:26:39;99515.72;;;8.59;67.91
49178;BME280;35016;55.674;37.468;2022-10-22T10:35:55;99515.97;;;8.57;67.09
49178;BME280;35016;55.674;37.468;2022-10-22T10:44:35;99510.75;;;8.51;66.73
49178;BME280;35016;55.674;37.468;2022-10-22T10:50:53;99519.59;;;8.46;66.47
49178;BME280;35016;55.674;37.468;2022-10-22T11:00:13;99502.47;;;8.57;66.46
49178;BME280;35016;55.674;37.468;2022-10-22T11:06:20;99487.41;;;8.45;66.53
49178;BME280;35016;55.674;37.468;2022-10-22T11:09:33;99496.91;;;8.47;66.16
49178;BME280;35016;55.674;37.468;2022-10-22T11:12:35;99492.06;;;8.49;66.40
49178;BME280;35016;55.674;37.468;2022-10-22T11:15:34;99478.50;;;8.44;66.41
49178;BME280;35016;55.674;37.468;2022-10-22T11:18:38;99490.50;;;8.53;66.09
49178;BME280;35016;55.674;37.468;2022-10-22T11:21:31;99493.53;;;8.57;66.31
49178;BME280;35016;55.674;37.468;2022-10-22T11:24:23;99482.16;;;8.55;66.32
49178;BME280;35016;55.674;37.468;2022-10-22T11:30:35;99484.47;;;8.46;66.33
49178;BME280;35016;55.674;37.468;2022-10-22T11:33:25;99482.81;;;8.45;66.52
49178;BME280;35016;55.674;37.468;2022-10-22T11:36:11;99496.09;;;8.47;66.70
49178;BME280;35016;55.674;37.468;2022-10-22T11:39:14;99472.25;;;8.44;66.53
49178;BME280;35016;55.674;37.468;2022-10-22T11:42:18;99473.16;;;8.49;66.05
49178;BME280;35016;55.674;37.468;2022-10-22T11:50:56;99463.59;;;8.42;66.49
49178;BME280;35016;55.674;37.468;2022-10-22T11:53:42;99456.78;;;8.39;66.14
49178;BME280;35016;55.674;37.468;2022-10-22T11:56:36;99476.34;;;8.46;66.07
49178;BME280;35016;55.674;37.468;2022-10-22T11:59:47;99458.78;;;8.32;65.92
49178;BME280;35016;55.674;37.468;2022-10-22T12:02:44;99468.31;;;8.51;65.79
49178;BME280;35016;55.674;37.468;2022-10-22T12:05:33;99461.78;;;8.47;66.15
49178;BME280;35016;55.674;37.468;2022-10-22T12:08:24;99460.13;;;8.46;66.08
49178;BME280;35016;55.674;37.468;2022-10-22T12:14:26;99451.75;;;8.31;65.58
49178;BME280;35016;55.674;37.468;2022-10-22T12:17:13;99453.56;;;8.25;65.95
49178;BME280;35016;55.674;37.468;2022-10-22T12:20:01;99455.44;;;8.25;66.29
49178;BME280;35016;55.674;37.468;2022-10-22T12:22:52;99455.09;;;8.21;66.27
49178;BME280;35016;55.674;37.468;2022-10-22T12:25:39;99442.34;;;8.17;66.38
49178;BME280;35016;55.674;37.468;2022-10-22T12:28:24;99446.19;;;8.21;66.57
49178;BME280;35016;55.674;37.468;2022-10-22T12:31:15;99445.13;;;8.22;66.81
49178;BME280;35016;55.674;37.468;2022-10-22T12:34:01;99444.81;;;8.18;66.81
49178;BME280;35016;55.674;37.468;2022-10-22T12:36:48;99440.94;;;8.14;66.57
49178;BME280;35016;55.674;37.468;2022-10-22T12:39:33;99445.34;;;8.03;66.52
49178;BME280;35016;55.674;37.468;2022-10-22T12:42:19;99430.03;;;7.92;66.83
49178;BME280;35016;55.674;37.468;2022-10-22T12:45:05;99437.31;;;7.92;66.48
49178;BME280;35016;55.674;37.468;2022-10-22T12:47:56;99433.47;;;7.88;66.94
49178;BME280;35016;55.674;37.468;2022-10-22T12:50:44;99429.06;;;7.82;66.97
49178;BME280;35016;55.674;37.468;2022-10-22T12:53:33;99426.94;;;7.84;67.53
49178;BME280;35016;55.674;37.468;2022-10-22T12:56:23;99432.22;;;7.78;67.74
49178;BME280;35016;55.674;37.468;2022-10-22T12:59:36;99424.47;;;7.82;67.54
49178;BME280;35016;55.674;37.468;2022-10-22T13:02:25;99425.50;;;7.64;67.65
49178;BME280;35016;55.674;37.468;2022-10-22T13:05:26;99419.09;;;7.54;67.76
49178;BME280;35016;55.674;37.468;2022-10-22T13:08:22;99442.44;;;7.48;67.86
49178;BME280;35016;55.674;37.468;2022-10-22T13:11:10;99442.75;;;7.35;68.38
49178;BME280;35016;55.674;37.468;2022-10-22T13:14:19;99432.09;;;7.17;68.46
49178;BME280;35016;55.674;37.468;2022-10-22T13:17:07;99400.03;;;6.92;68.90
49178;BME280;35016;55.674;37.468;2022-10-22T13:22:40;99427.81;;;6.92;69.48
49178;BME280;35016;55.674;37.468;2022-10-22T13:25:36;99423.97;;;6.88;69.59
49178;BME280;35016;55.674;37.468;2022-10-22T13:28:22;99423.28;;;6.81;69.64
49178;BME280;35016;55.674;37.468;2022-10-22T13:31:24;99424.22;;;6.75;70.88
49178;BME280;35016;55.674;37.468;2022-10-22T13:34:15;99424.81;;;6.77;70.40
49178;BME280;35016;55.674;37.468;2022-10-22T13:37:01;99413.59;;;6.68;70.83
49178;BME280;35016;55.674;37.468;2022-10-22T13:39:47;99419.66;;;6.75;70.80
49178;BME280;35016;55.674;37.468;2022-10-22T13:42:37;99406.41;;;6.62;70.91
49178;BME280;35016;55.674;37.468;2022-10-22T13:45:23;99422.25;;;6.70;71.06
49178;BME280;35016;55.674;37.468;2022-10-22T13:48:14;99387.13;;;6.53;71.42
49178;BME280;35016;55.674;37.468;2022-10-22T13:51:00;99386.53;;;6.51;71.20
49178;BME280;35016;55.674;37.468;2022-10-22T13:53:47;99411.22;;;6.72;71.90
49178;BME280;35016;55.674;37.468;2022-10-22T13:56:34;99397.41;;;6.68;72.24
49178;BME280;35016;55.674;37.468;2022-10-22T13:59:19;99400.47;;;6.72;72.32
49178;BME280;35016;55.674;37.468;2022-10-22T14:02:12;99402.34;;;6.71;72.41
49178;BME280;35016;55.674;37.468;2022-10-22T14:04:58;99404.44;;;6.69;71.67
49178;BME280;35016;55.674;37.468;2022-10-22T14:07:44;99393.19;;;6.72;71.78
49178;BME280;35016;55.674;37.468;2022-10-22T14:10:29;99394.25;;;6.71;71.94
49178;BME280;35016;55.674;37.468;2022-10-22T14:13:18;99388.28;;;6.69;72.09
49178;BME280;35016;55.674;37.468;2022-10-22T14:16:05;99382.88;;;6.69;71.96
49178;BME280;35016;55.674;37.468;2022-10-22T14:18:52;99403.25;;;6.77;71.96
49178;BME280;35016;55.674;37.468;2022-10-22T14:21:39;99388.38;;;6.74;72.08
49178;BME280;35016;55.674;37.468;2022-10-22T14:24:25;99404.56;;;6.74;71.78
49178;BME280;35016;55.674;37.468;2022-10-22T14:27:12;99401.63;;;6.76;71.89
49178;BME280;35016;55.674;37.468;2022-10-22T14:29:58;99407.59;;;6.78;72.03
49178;BME280;35016;55.674;37.468;2022-10-22T14:32:44;99407.09;;;6.81;72.20
49178;BME280;35016;55.674;37.468;2022-10-22T14:35:30;99401.84;;;6.74;72.25
49178;BME280;35016;55.674;37.468;2022-10-22T14:38:17;99399.16;;;6.74;71.97
49178;BME280;35016;55.674;37.468;2022-10-22T14:41:09;99412.75;;;6.79;72.23
49178;BME280;35016;55.674;37.468;2022-10-22T14:44:01;99404.66;;;6.79;72.31
49178;BME280;35016;55.674;37.468;2022-10-22T14:46:46;99396.31;;;6.81;72.62
49178;BME280;35016;55.674;37.468;2022-10-22T14:49:32;99384.28;;;6.72;72.28
49178;BME280;35016;55.674;37.468;2022-10-22T14:52:17;99386.25;;;6.76;72.77
49178;BME280;35016;55.674;37.468;2022-10-22T14:55:03;99383.09;;;6.79;72.74
49178;BME280;35016;55.674;37.468;2022-10-22T14:57:48;99402.66;;;6.87;72.79
49178;BME280;35016;55.674;37.468;2022-10-22T15:00:34;99386.06;;;6.66;72.68
49178;BME280;35016;55.674;37.468;2022-10-22T15:03:20;99400.09;;;6.80;72.86
49178;BME280;35016;55.674;37.468;2022-10-22T15:06:06;99416.94;;;6.87;72.35
49178;BME280;35016;55.674;37.468;2022-10-22T15:08:52;99392.09;;;6.85;72.59
49178;BME280;35016;55.674;37.468;2022-10-22T15:11:38;99396.00;;;6.77;72.67
49178;BME280;35016;55.674;37.468;2022-10-22T15:14:23;99375.63;;;6.70;72.61
49178;BME280;35016;55.674;37.468;2022-10-22T15:17:09;99390.13;;;6.80;72.57
49178;BME280;35016;55.674;37.468;2022-10-22T15:19:57;99391.66;;;6.76;72.65
49178;BME280;35016;55.674;37.468;2022-10-22T15:22:44;99405.47;;;6.80;72.85
49178;BME280;35016;55.674;37.468;2022-10-22T15:25:29;99395.66;;;6.74;72.90
49178;BME280;35016;55.674;37.468;2022-10-22T15:28:15;99377.03;;;6.72;72.57
49178;BME280;35016;55.674;37.468;2022-10-22T15:31:01;99399.25;;;6.79;72.67
49178;BME280;35016;55.674;37.468;2022-10-22T15:33:47;99391.41;;;6.78;73.00
49178;BME280;35016;55.674;37.468;2022-10-22T15:36:33;99397.28;;;6.75;72.75
49178;BME280;35016;55.674;37.468;2022-10-22T15:39:19;99424.56;;;6.78;72.85
49178;BME280;35016;55.674;37.468;2022-10-22T15:42:04;99407.94;;;6.81;72.82
49178;BME280;35016;55.674;37.468;2022-10-22T15:44:57;99387.09;;;6.77;72.43
49178;BME280;35016;55.674;37.468;2022-10-22T15:47:44;99404.91;;;6.66;72.90
49178;BME280;35016;55.674;37.468;2022-10-22T15:50:30;99405.72;;;6.78;72.54
49178;BME280;35016;55.674;37.468;2022-10-22T15:53:16;99407.81;;;6.76;72.64
49178;BME280;35016;55.674;37.468;2022-10-22T15:56:02;99398.34;;;6.74;72.51
49178;BME280;35016;55.674;37.468;2022-10-22T15:58:55;99406.09;;;6.70;72.70
49178;BME280;35016;55.674;37.468;2022-10-22T16:01:42;99424.47;;;6.73;72.93
49178;BME280;35016;55.674;37.468;2022-10-22T16:04:27;99414.63;;;6.67;73.25
49178;BME280;35016;55.674;37.468;2022-10-22T16:07:13;99413.34;;;6.70;73.06
49178;BME280;35016;55.674;37.468;2022-10-22T16:09:59;99422.25;;;6.70;73.48
49178;BME280;35016;55.674;37.468;2022-10-22T16:12:44;99412.28;;;6.71;73.29
49178;BME280;35016;55.674;37.468;2022-10-22T16:15:33;99419.56;;;6.70;73.51
49178;BME280;35016;55.674;37.468;2022-10-22T16:18:20;99408.19;;;6.57;73.01